createdAt,value
2024-02-28T00:01:57.316Z,1003.85
2024-02-28T00:06:57.255Z,1003.89
2024-02-28T00:11:57.205Z,1003.88
2024-02-28T00:16:57.092Z,1003.91
2024-02-28T00:21:57.080Z,1004.05
2024-02-28T00:26:56.984Z,1003.94
2024-02-28T00:31:56.924Z,1004.02
2024-02-28T00:36:57.124Z,1004.02
2024-02-28T00:41:56.790Z,1004.15
2024-02-28T00:46:56.790Z,1004.08
2024-02-28T00:51:56.775Z,1004.11
2024-02-28T00:56:56.570Z,1004.16
2024-02-28T01:01:56.538Z,1004.10
2024-02-28T01:06:56.500Z,1004.27
2024-02-28T01:11:56.435Z,1004.22
2024-02-28T01:16:56.418Z,1004.21
2024-02-28T01:21:56.341Z,1004.20
2024-02-28T01:26:56.243Z,1004.17
2024-02-28T01:31:56.142Z,1004.12
2024-02-28T01:36:56.198Z,1003.96
2024-02-28T01:41:56.023Z,1003.83
2024-02-28T01:46:56.051Z,1003.88
2024-02-28T01:51:56.026Z,1003.87
2024-02-28T01:56:55.798Z,1003.94
2024-02-28T02:01:55.761Z,1003.88
2024-02-28T02:06:55.836Z,1003.86
2024-02-28T02:11:55.624Z,1003.79
2024-02-28T02:16:55.578Z,1003.88
2024-02-28T02:21:55.578Z,1003.85
2024-02-28T02:26:55.461Z,1003.82
2024-02-28T02:31:55.358Z,1003.91
2024-02-28T02:36:55.319Z,1003.88
2024-02-28T02:41:55.378Z,1003.89
2024-02-28T02:46:55.162Z,1003.85
2024-02-28T02:51:55.128Z,1003.87
2024-02-28T02:56:55.008Z,1003.91
2024-02-28T03:01:55.072Z,1003.97
2024-02-28T03:06:54.921Z,1003.99
2024-02-28T03:11:54.848Z,1003.95
2024-02-28T03:16:54.788Z,1004.14
2024-02-28T03:21:54.826Z,1004.12
2024-02-28T03:26:54.634Z,1004.19
2024-02-28T03:31:54.583Z,1004.20
2024-02-28T03:36:54.641Z,1004.27
2024-02-28T03:41:54.478Z,1004.28
2024-02-28T03:46:54.351Z,1004.39
2024-02-28T03:51:54.382Z,1004.53
2024-02-28T03:56:54.249Z,1004.54
2024-02-28T04:01:54.177Z,1004.50
2024-02-28T04:06:54.178Z,1004.74
2024-02-28T04:11:54.089Z,1004.85
2024-02-28T04:16:54.035Z,1004.99
2024-02-28T04:21:53.986Z,1005.14
2024-02-28T04:26:53.794Z,1005.12
2024-02-28T04:31:53.799Z,1005.16
2024-02-28T04:36:53.921Z,1005.22
2024-02-28T04:41:53.651Z,1005.18
2024-02-28T04:46:53.586Z,1005.30
2024-02-28T04:51:53.599Z,1005.30
2024-02-28T04:56:53.487Z,1005.30
2024-02-28T05:01:53.479Z,1005.39
2024-02-28T05:06:53.365Z,1005.45
2024-02-28T05:11:53.350Z,1005.35
2024-02-28T05:16:53.245Z,1005.38
2024-02-28T05:21:53.182Z,1005.40
2024-02-28T05:26:53.054Z,1005.51
2024-02-28T05:31:53.079Z,1005.50
2024-02-28T05:36:52.965Z,1005.51
2024-02-28T05:41:52.872Z,1005.67
2024-02-28T05:46:52.783Z,1005.66
2024-02-28T05:51:52.829Z,1005.85
2024-02-28T05:56:52.697Z,1005.80
2024-02-28T06:01:52.647Z,1005.87
2024-02-28T06:06:52.579Z,1005.97
2024-02-28T06:11:52.510Z,1005.95
2024-02-28T06:16:52.411Z,1006.05
2024-02-28T06:21:52.662Z,1006.08
2024-02-28T06:26:52.274Z,1006.09
2024-02-28T06:31:52.209Z,1006.12
2024-02-28T06:36:52.243Z,1006.18
2024-02-28T06:41:52.205Z,1006.27
2024-02-28T06:46:51.996Z,1006.27
2024-02-28T06:51:51.980Z,1006.32
2024-02-28T06:56:51.847Z,1006.40
2024-02-28T07:01:51.972Z,1006.33
2024-02-28T07:06:51.927Z,1006.52
2024-02-28T07:11:51.690Z,1006.53
2024-02-28T07:16:51.605Z,1006.43
2024-02-28T07:21:51.598Z,1006.57
2024-02-28T07:26:51.469Z,1006.38
2024-02-28T07:31:51.413Z,1006.44
2024-02-28T07:36:51.424Z,1006.59
2024-02-28T07:41:53.214Z,1006.56
2024-02-28T07:46:51.249Z,1006.61
2024-02-28T07:51:51.505Z,1006.71
2024-02-28T07:56:51.066Z,1006.77
2024-02-28T08:01:51.084Z,1006.77
2024-02-28T08:06:50.984Z,1006.93
2024-02-28T08:11:50.878Z,1006.95
2024-02-28T08:16:50.802Z,1006.91
2024-02-28T08:21:50.799Z,1006.98
2024-02-28T08:26:50.673Z,1007.03
2024-02-28T08:31:50.627Z,1007.04
2024-02-28T08:36:50.570Z,1007.09
2024-02-28T08:41:50.529Z,1007.08
2024-02-28T08:46:50.438Z,1007.05
2024-02-28T08:51:50.584Z,1007.17
2024-02-28T08:56:56.585Z,1007.13
2024-02-28T09:01:51.323Z,1007.19
2024-02-28T09:06:50.246Z,1007.29
2024-02-28T09:11:50.453Z,1007.19
2024-02-28T09:16:50.056Z,1007.26
2024-02-28T09:21:50.034Z,1007.20
2024-02-28T09:26:49.891Z,1007.24
2024-02-28T09:31:49.862Z,1007.28
2024-02-28T09:36:51.274Z,1007.44
2024-02-28T09:41:49.755Z,1007.60
2024-02-28T09:46:49.604Z,1007.65
2024-02-28T09:51:49.587Z,1007.58
2024-02-28T09:56:49.513Z,1007.80
2024-02-28T10:01:49.466Z,1007.76
2024-02-28T10:06:49.385Z,1007.83
2024-02-28T10:11:49.336Z,1007.80
2024-02-28T10:16:49.218Z,1007.78
2024-02-28T10:21:49.204Z,1007.90
2024-02-28T10:26:49.133Z,1007.94
2024-02-28T10:31:49.047Z,1008.07
2024-02-28T10:36:49.113Z,1008.11
2024-02-28T10:41:48.909Z,1008.09
2024-02-28T10:46:48.931Z,1008.23
2024-02-28T10:51:48.845Z,1008.31
2024-02-28T10:56:48.743Z,1008.41
2024-02-28T11:01:48.750Z,1008.35
2024-02-28T11:06:48.573Z,1008.33
2024-02-28T11:11:48.529Z,1008.44
2024-02-28T11:16:48.485Z,1008.39
2024-02-28T11:21:48.410Z,1008.35
2024-02-28T11:26:50.097Z,1008.35
2024-02-28T11:31:48.237Z,1008.24
2024-02-28T11:36:48.332Z,1008.38
2024-02-28T11:41:48.129Z,1008.44
2024-02-28T11:46:48.079Z,1008.50
2024-02-28T11:51:48.267Z,1008.59
2024-02-28T11:56:48.017Z,1008.42
2024-02-28T12:01:48.144Z,1008.50
2024-02-28T12:06:47.922Z,1008.51
2024-02-28T12:11:47.690Z,1008.43
2024-02-28T12:16:47.677Z,1008.40
2024-02-28T12:21:47.600Z,1008.45
2024-02-28T12:26:47.529Z,1008.51
2024-02-28T12:31:47.470Z,1008.53
2024-02-28T12:36:47.789Z,1008.48
2024-02-28T12:41:47.321Z,1008.40
2024-02-28T12:46:47.270Z,1008.50
2024-02-28T12:51:47.369Z,1008.39
2024-02-28T12:56:47.165Z,1008.43
2024-02-28T13:01:47.211Z,1008.38
2024-02-28T13:06:47.070Z,1008.44
2024-02-28T13:11:46.989Z,1008.43
2024-02-28T13:16:46.930Z,1008.37
2024-02-28T13:21:46.848Z,1008.42
2024-02-28T13:26:46.736Z,1008.49
2024-02-28T13:31:46.701Z,1008.50
2024-02-28T13:36:46.722Z,1008.38
2024-02-28T13:41:46.546Z,1008.31
2024-02-28T13:46:46.606Z,1008.31
2024-02-28T13:51:48.522Z,1008.34
2024-02-28T13:56:46.372Z,1008.44
2024-02-28T14:01:46.497Z,1008.40
2024-02-28T14:06:46.303Z,1008.46
2024-02-28T14:11:46.161Z,1008.46
2024-02-28T14:16:46.177Z,1008.36
2024-02-28T14:21:46.117Z,1008.35
2024-02-28T14:26:45.966Z,1008.32
2024-02-28T14:31:45.899Z,1008.19
2024-02-28T14:36:45.867Z,1008.17
2024-02-28T14:41:45.769Z,1008.14
2024-02-28T14:46:45.732Z,1008.08
2024-02-28T14:51:45.618Z,1008.25
2024-02-28T14:56:45.574Z,1008.16
2024-02-28T15:01:45.558Z,1008.14
2024-02-28T15:06:45.515Z,1008.13
2024-02-28T15:11:45.342Z,1008.21
2024-02-28T15:16:45.323Z,1008.23
2024-02-28T15:21:45.281Z,1008.15
2024-02-28T15:26:47.068Z,1008.09
2024-02-28T15:31:45.107Z,1008.17
2024-02-28T15:36:45.052Z,1008.17
2024-02-28T15:41:44.941Z,1008.18
2024-02-28T15:46:44.944Z,1008.20
2024-02-28T15:51:44.838Z,1008.21
2024-02-28T15:56:44.730Z,1008.16
2024-02-28T16:01:44.685Z,1008.08
2024-02-28T16:06:44.657Z,1008.11
2024-02-28T16:11:44.580Z,1008.26
2024-02-28T16:16:44.508Z,1008.29
2024-02-28T16:21:44.503Z,1008.29
2024-02-28T16:26:44.398Z,1008.35
2024-02-28T16:31:44.308Z,1008.33
2024-02-28T16:36:44.272Z,1008.28
2024-02-28T16:41:44.178Z,1008.36
2024-02-28T16:46:44.145Z,1008.37
2024-02-28T16:51:44.080Z,1008.35
2024-02-28T16:56:43.998Z,1008.41
2024-02-28T17:01:44.023Z,1008.38
2024-02-28T17:06:43.957Z,1008.46
2024-02-28T17:11:43.817Z,1008.63
2024-02-28T17:16:43.734Z,1008.61
2024-02-28T17:21:43.761Z,1008.59
2024-02-28T17:26:43.599Z,1008.54
2024-02-28T17:31:43.516Z,1008.60
2024-02-28T17:36:43.514Z,1008.64
2024-02-28T17:41:43.452Z,1008.78
2024-02-28T17:46:43.349Z,1008.84
2024-02-28T17:51:43.306Z,1008.75
2024-02-28T17:56:43.290Z,1008.81
2024-02-28T18:01:43.279Z,1008.83
2024-02-28T18:06:43.103Z,1008.78
2024-02-28T18:11:43.097Z,1008.84
2024-02-28T18:16:42.960Z,1008.95
2024-02-28T18:21:42.918Z,1008.83
2024-02-28T18:26:42.802Z,1008.74
2024-02-28T18:31:42.739Z,1008.82
2024-02-28T18:36:42.746Z,1008.95
2024-02-28T18:41:42.650Z,1009.03
2024-02-28T18:46:42.554Z,1008.97
2024-02-28T18:51:42.566Z,1009.05
2024-02-28T18:56:42.457Z,1008.99
2024-02-28T19:01:42.559Z,1009.05
2024-02-28T19:06:42.332Z,1009.05
2024-02-28T19:11:42.224Z,1009.13
2024-02-28T19:16:42.158Z,1009.22
2024-02-28T19:21:42.140Z,1009.25
2024-02-28T19:26:42.055Z,1009.31
2024-02-28T19:31:41.978Z,1009.27
2024-02-28T19:36:41.947Z,1009.23
2024-02-28T19:41:41.855Z,1009.16
2024-02-28T19:46:41.759Z,1009.09
2024-02-28T19:51:41.737Z,1009.00
2024-02-28T19:56:41.674Z,1009.00
2024-02-28T20:01:41.736Z,1009.05
2024-02-28T20:06:41.607Z,1009.03
2024-02-28T20:11:41.474Z,1009.09
2024-02-28T20:16:41.552Z,1009.14
2024-02-28T20:21:41.374Z,1009.11
2024-02-28T20:26:41.265Z,1009.20
2024-02-28T20:31:41.207Z,1009.13
2024-02-28T20:36:41.211Z,1009.11
2024-02-28T20:41:41.070Z,1009.11
2024-02-28T20:46:41.001Z,1009.17
2024-02-28T20:51:41.033Z,1009.13
2024-02-28T20:56:40.865Z,1009.13
2024-02-28T21:01:41.031Z,1009.10
2024-02-28T21:06:40.764Z,1009.14
2024-02-28T21:11:40.768Z,1009.02
2024-02-28T21:16:40.621Z,1008.97
2024-02-28T21:21:40.612Z,1008.92
2024-02-28T21:26:40.502Z,1008.88
2024-02-28T21:31:40.445Z,1008.93
2024-02-28T21:36:40.435Z,1008.93
2024-02-28T21:41:40.337Z,1009.01
2024-02-28T21:46:40.228Z,1008.93
2024-02-28T21:51:40.275Z,1008.93
2024-02-28T21:56:40.113Z,1008.98
2024-02-28T22:01:40.139Z,1008.85
2024-02-28T22:06:40.050Z,1008.83
2024-02-28T22:11:39.941Z,1008.83
2024-02-28T22:16:39.852Z,1008.78
2024-02-28T22:21:39.858Z,1008.73
2024-02-28T22:26:39.778Z,1008.85
2024-02-28T22:31:39.678Z,1008.66
2024-02-28T22:36:39.628Z,1008.75
2024-02-28T22:41:39.523Z,1008.69
2024-02-28T22:46:39.556Z,1008.66
2024-02-28T22:51:39.482Z,1008.68
2024-02-28T22:56:39.315Z,1008.80
2024-02-28T23:01:39.384Z,1008.77
2024-02-28T23:06:39.273Z,1008.82
2024-02-28T23:11:39.131Z,1008.78
2024-02-28T23:16:39.059Z,1008.73
2024-02-28T23:21:39.271Z,1008.66
2024-02-28T23:26:38.959Z,1008.68
2024-02-28T23:31:38.909Z,1008.55
2024-02-28T23:36:38.894Z,1008.56
2024-02-28T23:41:38.747Z,1008.55
2024-02-28T23:46:38.750Z,1008.57
2024-02-28T23:51:38.742Z,1008.48
2024-02-28T23:56:38.625Z,1008.40
